createdAt,value
2018-02-16T00:01:40.093Z,24.98
2018-02-16T00:04:09.437Z,23.12
2018-02-16T00:06:38.836Z,18.58
2018-02-16T00:09:08.114Z,19.65
2018-02-16T00:11:37.463Z,18.75
2018-02-16T00:14:06.810Z,20.12
2018-02-16T00:16:36.105Z,18.12
2018-02-16T00:19:05.427Z,20.08
2018-02-16T00:21:35.512Z,22.37
2018-02-16T00:24:04.824Z,20.40
2018-02-16T00:26:39.057Z,20.27
2018-02-16T00:29:08.415Z,16.70
2018-02-16T00:31:37.732Z,20.08
2018-02-16T00:34:07.061Z,22.75
2018-02-16T00:36:37.141Z,18.67
2018-02-16T00:39:06.491Z,16.90
2018-02-16T00:41:36.553Z,17.20
2018-02-16T00:44:05.962Z,17.55
2018-02-16T00:46:36.111Z,17.70
2018-02-16T00:49:05.444Z,17.58
2018-02-16T00:51:34.744Z,16.55
2018-02-16T00:54:04.044Z,14.80
2018-02-16T00:56:33.375Z,17.90
2018-02-16T00:59:02.735Z,17.58
2018-02-16T01:01:32.806Z,14.85
2018-02-16T01:04:02.306Z,16.08
2018-02-16T01:06:31.626Z,17.40
2018-02-16T01:09:00.928Z,16.75
2018-02-16T01:11:30.235Z,18.45
2018-02-16T01:13:59.548Z,18.73
2018-02-16T01:16:28.894Z,12.65
2018-02-16T01:18:58.227Z,16.73
2018-02-16T01:21:27.739Z,18.27
2018-02-16T01:23:57.060Z,14.00
2018-02-16T01:26:26.407Z,14.02
2018-02-16T01:28:55.733Z,16.52
2018-02-16T01:31:25.012Z,14.87
2018-02-16T01:33:54.397Z,16.20
2018-02-16T01:36:23.742Z,16.27
2018-02-16T01:38:53.038Z,15.55
2018-02-16T01:41:22.347Z,15.38
2018-02-16T01:43:52.201Z,14.95
2018-02-16T01:46:21.516Z,15.00
2018-02-16T01:48:50.830Z,16.25
2018-02-16T01:51:20.142Z,17.83
2018-02-16T01:53:49.451Z,13.45
2018-02-16T01:56:18.770Z,13.32
2018-02-16T01:58:48.050Z,14.82
2018-02-16T02:01:17.375Z,16.15
2018-02-16T02:03:47.462Z,14.30
2018-02-16T02:06:16.772Z,12.95
2018-02-16T02:08:46.079Z,17.15
2018-02-16T02:11:15.345Z,14.55
2018-02-16T02:13:44.664Z,10.35
2018-02-16T02:16:13.957Z,9.82
2018-02-16T02:18:43.250Z,10.77
2018-02-16T02:21:12.559Z,9.65
2018-02-16T02:23:41.850Z,10.80
2018-02-16T02:26:11.174Z,9.90
2018-02-16T02:28:40.581Z,9.20
2018-02-16T02:31:09.858Z,9.95
2018-02-16T02:33:39.182Z,10.10
2018-02-16T02:36:08.462Z,8.80
2018-02-16T02:38:37.766Z,9.45
2018-02-16T02:41:07.070Z,8.73
2018-02-16T02:43:36.485Z,7.80
2018-02-16T02:46:05.775Z,9.38
2018-02-16T02:48:35.065Z,7.60
2018-02-16T02:51:04.370Z,7.82
2018-02-16T02:53:33.665Z,6.15
2018-02-16T02:56:03.187Z,6.22
2018-02-16T02:58:32.499Z,5.80
2018-02-16T03:01:01.811Z,5.97
2018-02-16T03:03:31.090Z,8.93
2018-02-16T03:06:00.389Z,4.95
2018-02-16T03:08:29.664Z,6.32
2018-02-16T03:10:58.981Z,8.95
2018-02-16T03:13:28.306Z,4.95
2018-02-16T03:15:57.591Z,4.85
2018-02-16T03:18:26.866Z,6.37
2018-02-16T03:20:56.161Z,7.07
2018-02-16T03:23:25.555Z,4.32
2018-02-16T03:25:54.835Z,4.35
2018-02-16T03:28:24.787Z,3.85
2018-02-16T03:30:54.077Z,3.65
2018-02-16T03:33:23.396Z,3.85
2018-02-16T03:35:52.684Z,3.60
2018-02-16T03:38:21.994Z,3.65
2018-02-16T03:40:51.291Z,4.03
2018-02-16T03:43:20.569Z,6.20
2018-02-16T03:45:49.894Z,5.85
2018-02-16T03:48:19.176Z,2.92
2018-02-16T03:50:48.458Z,4.53
2018-02-16T03:53:17.771Z,4.40
2018-02-16T03:55:47.053Z,4.25
2018-02-16T03:58:17.121Z,3.95
2018-02-16T04:00:46.424Z,2.45
2018-02-16T04:03:15.712Z,4.43
2018-02-16T04:05:45.013Z,5.85
2018-02-16T04:08:14.338Z,2.60
2018-02-16T04:10:43.651Z,3.87
2018-02-16T04:13:12.936Z,5.90
2018-02-16T04:15:42.248Z,2.40
2018-02-16T04:18:11.535Z,6.30
2018-02-16T04:20:40.841Z,4.95
2018-02-16T04:23:10.138Z,3.42
2018-02-16T04:25:39.472Z,1.98
2018-02-16T04:28:09.528Z,4.07
2018-02-16T04:30:38.846Z,2.47
2018-02-16T04:33:08.125Z,4.90
2018-02-16T04:35:37.431Z,3.78
2018-02-16T04:38:07.615Z,3.85
2018-02-16T04:40:37.669Z,2.97
2018-02-16T04:43:07.012Z,8.23
2018-02-16T04:45:36.327Z,10.05
2018-02-16T04:48:05.636Z,8.95
2018-02-16T04:50:35.005Z,10.88
2018-02-16T04:53:04.279Z,15.02
2018-02-16T04:55:33.589Z,5.68
2018-02-16T04:58:02.907Z,3.33
2018-02-16T05:00:32.159Z,4.45
2018-02-16T05:03:03.095Z,2.55
2018-02-16T05:05:32.395Z,8.18
2018-02-16T05:08:01.706Z,6.80
2018-02-16T05:10:30.983Z,6.85
2018-02-16T05:13:01.061Z,3.80
2018-02-16T05:15:30.345Z,6.35
2018-02-16T05:17:59.643Z,4.68
2018-02-16T05:20:29.635Z,3.62
2018-02-16T05:22:58.939Z,7.40
2018-02-16T05:25:28.261Z,7.80
2018-02-16T05:27:57.561Z,14.45
2018-02-16T05:30:26.928Z,7.72
2018-02-16T05:32:56.265Z,5.55
2018-02-16T05:35:25.545Z,6.55
2018-02-16T05:37:54.820Z,5.95
2018-02-16T05:40:25.820Z,3.50
2018-02-16T05:42:57.060Z,10.40
2018-02-16T05:45:26.991Z,6.50
2018-02-16T05:47:56.256Z,9.93
2018-02-16T05:50:25.547Z,6.05
2018-02-16T05:52:55.606Z,11.48
2018-02-16T05:55:24.930Z,6.07
2018-02-16T05:57:54.236Z,7.47
2018-02-16T06:00:24.294Z,8.48
2018-02-16T06:02:53.608Z,7.57
2018-02-16T06:05:22.903Z,7.97
2018-02-16T06:07:52.192Z,7.55
2018-02-16T06:10:21.476Z,6.37
2018-02-16T06:12:50.762Z,4.53
2018-02-16T06:15:20.053Z,9.05
2018-02-16T06:17:50.262Z,5.55
2018-02-16T06:20:19.554Z,9.00
2018-02-16T06:22:48.849Z,8.30
2018-02-16T06:25:18.135Z,8.68
2018-02-16T06:27:47.438Z,9.98
2018-02-16T06:30:16.722Z,15.27
2018-02-16T06:32:45.999Z,7.15
2018-02-16T06:35:15.905Z,5.12
2018-02-16T06:37:45.187Z,8.52
2018-02-16T06:40:15.369Z,8.48
2018-02-16T06:42:44.847Z,7.35
2018-02-16T06:45:14.943Z,12.30
2018-02-16T06:47:44.245Z,14.00
2018-02-16T06:50:13.539Z,10.18
2018-02-16T06:52:42.826Z,10.15
2018-02-16T06:55:12.877Z,9.70
2018-02-16T06:57:42.964Z,7.20
2018-02-16T07:00:12.266Z,8.13
2018-02-16T07:02:41.574Z,7.93
2018-02-16T07:05:10.865Z,7.20
2018-02-16T07:07:40.179Z,12.88
2018-02-16T07:10:10.284Z,13.30
2018-02-16T07:12:39.566Z,6.60
2018-02-16T07:15:08.922Z,12.57
2018-02-16T07:17:38.348Z,11.40
2018-02-16T07:20:08.697Z,11.70
2018-02-16T07:22:38.193Z,10.77
2018-02-16T07:25:07.459Z,9.73
2018-02-16T07:27:36.740Z,14.90
2018-02-16T07:30:09.453Z,9.32
2018-02-16T07:32:38.744Z,9.55
2018-02-16T07:35:08.287Z,8.45
2018-02-16T07:37:37.606Z,8.60
2018-02-16T07:40:06.898Z,12.57
2018-02-16T07:42:36.217Z,7.30
2018-02-16T07:45:05.513Z,13.05
2018-02-16T07:47:35.336Z,7.50
2018-02-16T07:50:04.635Z,8.63
2018-02-16T07:52:33.972Z,10.88
2018-02-16T07:55:03.367Z,11.65
2018-02-16T07:57:32.650Z,9.77
2018-02-16T08:00:01.942Z,8.00
2018-02-16T08:02:31.292Z,9.02
2018-02-16T08:05:00.601Z,15.60
2018-02-16T08:07:29.948Z,11.40
2018-02-16T08:09:59.271Z,13.25
2018-02-16T08:12:28.566Z,7.62
2018-02-16T08:14:57.855Z,9.13
2018-02-16T08:17:27.161Z,8.55
2018-02-16T08:19:56.467Z,8.70
2018-02-16T08:22:25.804Z,11.98
2018-02-16T08:24:56.262Z,13.32
2018-02-16T08:27:26.634Z,8.95
2018-02-16T08:30:14.166Z,10.10
2018-02-16T08:32:43.452Z,8.38
2018-02-16T08:35:12.769Z,11.27
2018-02-16T08:37:42.058Z,11.35
2018-02-16T08:40:11.351Z,11.12
2018-02-16T08:42:40.684Z,13.75
2018-02-16T08:45:09.988Z,10.85
2018-02-16T08:47:39.293Z,13.55
2018-02-16T08:50:08.602Z,9.48
2018-02-16T08:52:37.927Z,11.05
2018-02-16T08:55:07.369Z,11.52
2018-02-16T08:57:36.665Z,8.32
2018-02-16T09:00:05.955Z,7.90
2018-02-16T09:02:35.244Z,10.85
2018-02-16T09:05:04.522Z,12.50
2018-02-16T09:07:34.649Z,11.00
2018-02-16T09:10:04.750Z,14.95
2018-02-16T09:12:34.064Z,6.93
2018-02-16T09:15:03.385Z,6.32
2018-02-16T09:17:33.479Z,13.30
2018-02-16T09:20:02.783Z,8.23
2018-02-16T09:22:32.796Z,8.18
2018-02-16T09:25:02.883Z,12.93
2018-02-16T09:27:33.002Z,9.52
2018-02-16T09:30:02.284Z,18.87
2018-02-16T09:32:31.560Z,7.05
2018-02-16T09:35:00.879Z,5.28
2018-02-16T09:37:31.381Z,9.25
2018-02-16T09:40:01.207Z,6.15
2018-02-16T09:42:30.494Z,10.52
2018-02-16T09:44:59.834Z,12.95
2018-02-16T09:47:29.233Z,10.52
2018-02-16T09:49:58.579Z,5.20
2018-02-16T09:52:28.184Z,16.02
2018-02-16T09:55:01.156Z,17.48
2018-02-16T09:57:31.347Z,7.55
2018-02-16T10:00:00.619Z,9.48
2018-02-16T10:02:29.925Z,10.18
2018-02-16T10:04:59.992Z,10.10
2018-02-16T10:07:29.347Z,4.45
2018-02-16T10:09:58.666Z,9.07
2018-02-16T10:12:27.986Z,9.85
2018-02-16T10:14:57.265Z,14.25
2018-02-16T10:17:26.554Z,8.00
2018-02-16T10:19:55.855Z,8.48
2018-02-16T10:22:25.158Z,8.95
2018-02-16T10:24:55.375Z,10.38
2018-02-16T10:27:24.693Z,9.13
2018-02-16T10:29:53.973Z,9.10
2018-02-16T10:32:23.283Z,12.73
2018-02-16T10:34:52.564Z,7.62
2018-02-16T10:37:22.630Z,8.23
2018-02-16T10:39:51.929Z,9.70
2018-02-16T10:42:21.442Z,6.20
2018-02-16T10:44:50.708Z,12.10
2018-02-16T10:47:20.049Z,7.43
2018-02-16T10:49:49.395Z,8.07
2018-02-16T10:52:18.620Z,7.65
2018-02-16T10:54:47.921Z,9.18
2018-02-16T10:57:17.220Z,8.60
2018-02-16T10:59:46.510Z,11.15
2018-02-16T11:02:21.353Z,11.73
2018-02-16T11:04:56.262Z,6.65
2018-02-16T11:07:31.131Z,12.68
2018-02-16T11:10:00.464Z,6.85
2018-02-16T11:12:29.736Z,7.22
2018-02-16T11:14:59.639Z,12.18
2018-02-16T11:17:28.914Z,17.55
2018-02-16T11:19:58.229Z,11.00
2018-02-16T11:22:27.549Z,7.78
2018-02-16T11:24:56.828Z,8.95
2018-02-16T11:27:26.102Z,7.97
2018-02-16T11:29:55.442Z,8.23
2018-02-16T11:32:24.726Z,8.75
2018-02-16T11:34:54.005Z,11.75
2018-02-16T11:37:23.314Z,14.73
2018-02-16T11:39:52.630Z,15.10
2018-02-16T11:42:21.929Z,12.95
2018-02-16T11:44:51.250Z,11.05
2018-02-16T11:47:20.553Z,11.02
2018-02-16T11:49:49.866Z,7.57
2018-02-16T11:52:19.162Z,14.70
2018-02-16T11:54:48.605Z,11.30
2018-02-16T11:57:17.904Z,7.53
2018-02-16T11:59:47.176Z,7.57
2018-02-16T12:02:16.471Z,7.90
2018-02-16T12:04:45.734Z,7.32
2018-02-16T12:07:15.055Z,15.27
2018-02-16T12:09:44.344Z,7.00
2018-02-16T12:12:13.664Z,6.32
2018-02-16T12:14:42.957Z,9.95
2018-02-16T12:17:12.235Z,12.65
2018-02-16T12:19:41.578Z,6.28
2018-02-16T12:22:10.943Z,7.03
2018-02-16T12:24:40.192Z,20.10
2018-02-16T12:27:10.199Z,9.32
2018-02-16T12:29:39.517Z,8.40
2018-02-16T12:32:10.328Z,12.73
2018-02-16T12:34:39.678Z,8.93
2018-02-16T12:37:08.986Z,9.35
2018-02-16T12:39:38.277Z,8.05
2018-02-16T12:42:07.565Z,12.57
2018-02-16T12:44:37.755Z,11.52
2018-02-16T12:47:07.069Z,9.48
2018-02-16T12:49:36.363Z,7.68
2018-02-16T12:52:05.675Z,12.60
2018-02-16T12:54:35.739Z,11.98
2018-02-16T12:57:05.033Z,10.65
2018-02-16T12:59:34.344Z,10.48
2018-02-16T13:02:04.264Z,10.25
2018-02-16T13:04:38.992Z,9.23
2018-02-16T13:07:08.895Z,11.30
2018-02-16T13:09:38.611Z,10.82
2018-02-16T13:12:07.906Z,10.60
2018-02-16T13:14:37.599Z,10.75
2018-02-16T13:17:07.159Z,9.98
2018-02-16T13:19:36.458Z,9.95
2018-02-16T13:22:05.767Z,16.48
2018-02-16T13:24:35.075Z,8.90
2018-02-16T13:27:04.391Z,16.48
2018-02-16T13:29:33.692Z,10.82
2018-02-16T13:32:03.836Z,11.75
2018-02-16T13:34:33.126Z,10.88
2018-02-16T13:37:03.329Z,9.05
2018-02-16T13:39:33.386Z,10.20
2018-02-16T13:42:02.681Z,9.82
2018-02-16T13:44:32.003Z,9.18
2018-02-16T13:47:01.280Z,10.63
2018-02-16T13:49:30.664Z,13.27
2018-02-16T13:51:59.955Z,13.23
2018-02-16T13:54:29.292Z,7.65
2018-02-16T13:56:58.592Z,14.40
2018-02-16T13:59:27.883Z,13.52
2018-02-16T14:01:57.182Z,14.93
2018-02-16T14:04:26.527Z,12.57
2018-02-16T14:06:55.824Z,11.23
2018-02-16T14:09:25.125Z,17.50
2018-02-16T14:11:54.434Z,9.98
2018-02-16T14:14:23.725Z,10.00
2018-02-16T14:16:53.026Z,10.43
2018-02-16T14:19:22.339Z,10.07
2018-02-16T14:21:52.292Z,9.02
2018-02-16T14:24:21.575Z,10.52
2018-02-16T14:26:50.871Z,15.75
2018-02-16T14:29:20.943Z,9.65
2018-02-16T14:31:50.258Z,15.55
2018-02-16T14:34:19.582Z,7.12
2018-02-16T14:36:48.857Z,11.07
2018-02-16T14:39:18.155Z,11.75
2018-02-16T14:41:47.445Z,10.93
2018-02-16T14:44:16.780Z,10.15
2018-02-16T14:46:46.046Z,15.07
2018-02-16T14:49:15.368Z,13.90
2018-02-16T14:51:44.637Z,9.35
2018-02-16T14:54:13.949Z,6.20
2018-02-16T14:56:43.235Z,9.50
2018-02-16T14:59:12.516Z,11.30
2018-02-16T15:01:41.886Z,14.00
2018-02-16T15:04:11.364Z,12.15
2018-02-16T15:06:40.709Z,10.88
2018-02-16T15:09:09.946Z,8.65
2018-02-16T15:11:39.224Z,9.30
2018-02-16T15:14:08.532Z,8.95
2018-02-16T15:16:37.813Z,13.35
2018-02-16T15:19:07.116Z,11.77
2018-02-16T15:21:36.448Z,10.27
2018-02-16T15:24:05.726Z,13.73
2018-02-16T15:26:35.023Z,7.75
2018-02-16T15:29:04.327Z,11.35
2018-02-16T15:31:33.629Z,12.18
2018-02-16T15:34:03.011Z,13.15
2018-02-16T15:36:32.294Z,6.45
2018-02-16T15:39:01.626Z,13.15
2018-02-16T15:41:31.068Z,11.20
2018-02-16T15:44:00.439Z,14.60
2018-02-16T15:46:29.722Z,15.15
2018-02-16T15:48:59.049Z,17.23
2018-02-16T15:51:28.338Z,11.88
2018-02-16T15:53:57.621Z,13.50
2018-02-16T15:56:26.926Z,10.75
2018-02-16T15:58:56.832Z,12.88
2018-02-16T16:01:26.907Z,9.60
2018-02-16T16:03:56.360Z,13.38
2018-02-16T16:06:26.457Z,10.02
2018-02-16T16:08:55.735Z,13.73
2018-02-16T16:11:25.027Z,12.00
2018-02-16T16:13:54.342Z,9.05
2018-02-16T16:16:23.627Z,13.32
2018-02-16T16:18:53.658Z,9.77
2018-02-16T16:21:22.932Z,10.90
2018-02-16T16:23:52.247Z,14.27
2018-02-16T16:26:21.534Z,18.05
2018-02-16T16:28:50.850Z,13.52
2018-02-16T16:31:20.153Z,16.95
2018-02-16T16:33:50.550Z,10.00
2018-02-16T16:36:19.835Z,13.52
2018-02-16T16:38:49.122Z,13.55
2018-02-16T16:41:18.413Z,16.12
2018-02-16T16:43:49.206Z,13.80
2018-02-16T16:46:18.511Z,13.20
2018-02-16T16:48:47.825Z,18.67
2018-02-16T16:51:17.756Z,13.45
2018-02-16T16:53:47.815Z,13.88
2018-02-16T16:56:17.126Z,14.25
2018-02-16T16:58:46.425Z,14.07
2018-02-16T17:01:15.729Z,14.73
2018-02-16T17:03:45.024Z,15.48
2018-02-16T17:06:14.330Z,14.35
2018-02-16T17:08:43.644Z,26.08
2018-02-16T17:11:12.952Z,18.05
2018-02-16T17:13:42.239Z,16.30
2018-02-16T17:16:14.497Z,19.27
2018-02-16T17:18:43.839Z,21.92
2018-02-16T17:21:13.124Z,18.75
2018-02-16T17:23:42.461Z,18.62
2018-02-16T17:26:12.534Z,16.80
2018-02-16T17:28:41.819Z,14.52
2018-02-16T17:31:11.107Z,24.00
2018-02-16T17:33:40.402Z,20.95
2018-02-16T17:36:09.718Z,19.67
2018-02-16T17:38:39.002Z,22.37
2018-02-16T17:41:08.291Z,18.27
2018-02-16T17:43:37.571Z,18.80
2018-02-16T17:46:07.887Z,14.23
2018-02-16T17:48:37.226Z,11.30
2018-02-16T17:51:06.546Z,20.83
2018-02-16T17:53:35.844Z,13.70
2018-02-16T17:56:05.123Z,16.62
2018-02-16T17:58:34.491Z,14.93
2018-02-16T18:01:03.833Z,15.25
2018-02-16T18:03:33.106Z,14.07
2018-02-16T18:06:04.206Z,18.25
2018-02-16T18:08:33.479Z,28.87
2018-02-16T18:11:02.790Z,30.33
2018-02-16T18:13:32.088Z,15.15
2018-02-16T18:16:01.382Z,21.87
2018-02-16T18:18:30.685Z,26.80
2018-02-16T18:20:59.997Z,37.65
2018-02-16T18:23:29.290Z,32.08
2018-02-16T18:26:02.024Z,27.50
2018-02-16T18:28:32.079Z,22.45
2018-02-16T18:31:01.406Z,25.30
2018-02-16T18:33:30.685Z,29.77
2018-02-16T18:36:00.037Z,28.73
2018-02-16T18:38:29.357Z,26.77
2018-02-16T18:40:59.443Z,29.25
2018-02-16T18:43:28.767Z,17.73
2018-02-16T18:45:58.068Z,26.15
2018-02-16T18:48:27.351Z,27.95
2018-02-16T18:50:56.649Z,18.58
2018-02-16T18:53:25.963Z,25.42
2018-02-16T18:55:55.265Z,30.05
2018-02-16T18:58:24.560Z,23.65
2018-02-16T19:00:53.854Z,25.17
2018-02-16T19:03:23.165Z,20.33
2018-02-16T19:05:52.464Z,27.62
2018-02-16T19:08:21.912Z,19.08
2018-02-16T19:10:51.227Z,24.30
2018-02-16T19:13:20.531Z,22.65
2018-02-16T19:15:49.938Z,24.15
2018-02-16T19:18:19.222Z,21.33
2018-02-16T19:20:48.530Z,29.10
2018-02-16T19:23:17.846Z,27.35
2018-02-16T19:25:47.154Z,22.92
2018-02-16T19:28:16.473Z,28.83
2018-02-16T19:30:45.781Z,27.23
2018-02-16T19:33:15.864Z,29.58
2018-02-16T19:35:45.188Z,32.88
2018-02-16T19:38:14.488Z,29.52
2018-02-16T19:40:43.802Z,25.50
2018-02-16T19:43:13.098Z,28.00
2018-02-16T19:45:42.695Z,26.60
2018-02-16T19:48:11.998Z,22.25
2018-02-16T19:50:41.295Z,28.55
2018-02-16T19:53:10.623Z,37.58
2018-02-16T19:55:40.695Z,26.65
2018-02-16T19:58:10.053Z,31.48
2018-02-16T20:00:39.341Z,28.95
2018-02-16T20:03:09.409Z,22.67
2018-02-16T20:05:38.753Z,26.48
2018-02-16T20:08:08.829Z,22.98
2018-02-16T20:10:38.173Z,31.17
2018-02-16T20:13:08.230Z,26.70
2018-02-16T20:15:37.592Z,40.15
2018-02-16T20:18:06.944Z,56.90
2018-02-16T20:20:36.283Z,38.40
2018-02-16T20:23:05.579Z,42.85
2018-02-16T20:25:34.880Z,29.12
2018-02-16T20:28:04.189Z,29.58
2018-02-16T20:30:33.509Z,31.10
2018-02-16T20:33:02.809Z,31.80
2018-02-16T20:35:32.878Z,25.05
2018-02-16T20:38:02.172Z,27.13
2018-02-16T20:40:31.478Z,25.90
2018-02-16T20:43:00.785Z,24.10
2018-02-16T20:45:30.106Z,17.45
2018-02-16T20:47:59.490Z,16.80
2018-02-16T20:50:28.778Z,19.87
2018-02-16T20:52:58.081Z,23.20
2018-02-16T20:55:27.411Z,20.88
2018-02-16T20:57:56.685Z,21.75
2018-02-16T21:00:26.565Z,24.05
2018-02-16T21:02:55.913Z,18.73
2018-02-16T21:05:25.238Z,20.70
2018-02-16T21:07:54.583Z,17.65
2018-02-16T21:10:23.926Z,19.25
2018-02-16T21:12:53.431Z,18.27
2018-02-16T21:15:22.713Z,20.25
2018-02-16T21:17:52.054Z,16.62
2018-02-16T21:20:22.130Z,19.48
2018-02-16T21:22:51.478Z,18.05
2018-02-16T21:25:20.780Z,21.60
2018-02-16T21:27:50.115Z,19.12
2018-02-16T21:30:19.414Z,22.02
2018-02-16T21:32:48.730Z,26.65
2018-02-16T21:35:18.193Z,24.67
2018-02-16T21:37:47.521Z,20.15
2018-02-16T21:40:16.845Z,19.83
2018-02-16T21:42:46.187Z,20.60
2018-02-16T21:45:16.454Z,18.70
2018-02-16T21:47:46.880Z,19.92
2018-02-16T21:50:16.196Z,18.00
2018-02-16T21:52:45.978Z,24.27
2018-02-16T21:55:15.391Z,21.83
2018-02-16T21:57:44.860Z,21.37
2018-02-16T22:00:16.041Z,19.23
2018-02-16T22:02:45.358Z,23.73
2018-02-16T22:05:14.755Z,17.25
2018-02-16T22:07:44.182Z,26.05
2018-02-16T22:10:13.493Z,26.85
2018-02-16T22:12:42.950Z,19.20
2018-02-16T22:15:14.080Z,26.77
2018-02-16T22:17:43.578Z,23.38
2018-02-16T22:20:13.057Z,28.75
2018-02-16T22:22:42.407Z,28.95
2018-02-16T22:25:11.749Z,26.33
2018-02-16T22:27:41.939Z,20.80
2018-02-16T22:30:11.247Z,24.02
2018-02-16T22:32:40.536Z,25.52
2018-02-16T22:35:09.940Z,28.52
2018-02-16T22:37:39.236Z,23.20
2018-02-16T22:40:08.553Z,22.95
2018-02-16T22:42:38.376Z,29.00
2018-02-16T22:45:07.676Z,22.65
2018-02-16T22:47:37.779Z,18.80
2018-02-16T22:50:07.313Z,22.42
2018-02-16T22:52:36.664Z,27.85
2018-02-16T22:55:05.941Z,28.10
2018-02-16T22:57:35.278Z,24.30
2018-02-16T23:00:04.561Z,21.35
2018-02-16T23:02:34.008Z,23.45
2018-02-16T23:05:03.324Z,25.17
2018-02-16T23:07:32.623Z,19.17
2018-02-16T23:10:01.935Z,21.42
2018-02-16T23:12:31.229Z,27.65
2018-02-16T23:15:00.528Z,23.83
2018-02-16T23:17:30.234Z,25.70
2018-02-16T23:19:59.559Z,29.40
2018-02-16T23:22:29.635Z,26.15
2018-02-16T23:24:58.941Z,23.00
2018-02-16T23:27:28.276Z,27.35
2018-02-16T23:29:58.355Z,29.17
2018-02-16T23:32:27.769Z,24.98
2018-02-16T23:34:57.071Z,22.70
2018-02-16T23:37:26.403Z,24.12
2018-02-16T23:39:55.700Z,30.23
2018-02-16T23:44:59.622Z,24.98
2018-02-16T23:47:28.940Z,22.23
2018-02-16T23:49:58.247Z,24.25
2018-02-16T23:52:27.642Z,25.30
2018-02-16T23:54:56.946Z,31.95
2018-02-16T23:57:26.250Z,26.17
2018-02-16T23:59:55.546Z,30.52
